Time;durP1;ratioP1;P1;durP2;ratioP2;P2;SDS_P1;SDS_P2;PMS_P1;PMS_P2;Temp;Humidity;BMP_temperature;BMP_pressure;BME280_temperature;BME280_humidity;BME280_pressure;Samples;Min_cycle;Max_cycle;Signal;HPM_P1;HPM_P2
2022/03/24 00:00:38;;;;;;;;;42.50;35.00;;;;;15.79;30.70;102150.84;5056687;28;45576;-60
2022/03/24 00:03:04;;;;;;;;;46.00;37.80;;;;;15.61;30.13;102120.19;5039537;28;45457;-60
2022/03/24 00:05:30;;;;;;;;;43.25;35.50;;;;;15.51;30.60;102118.69;5056604;28;45379;-61
2022/03/24 00:07:55;;;;;;;;;46.00;34.00;;;;;15.56;29.73;102143.81;5057999;28;45421;-60
2022/03/24 00:10:21;;;;;;;;;37.75;34.00;;;;;15.56;30.57;102145.72;5057812;28;45454;-58
2022/03/24 00:12:46;;;;;;;;;43.50;32.25;;;;;15.59;30.44;102142.56;5057771;28;45366;-61
2022/03/24 00:15:12;;;;;;;;;47.50;38.25;;;;;15.58;30.50;102146.34;5057790;28;45529;-61
2022/03/24 00:17:38;;;;;;;;;39.00;33.60;;;;;15.60;29.97;102141.47;5057669;28;45322;-60
2022/03/24 00:20:04;;;;;;;;;49.75;41.50;;;;;15.56;30.24;102148.50;5057601;28;46011;-61
2022/03/24 00:22:30;;;;;;;;;56.80;42.40;;;;;15.53;30.39;102149.75;5039483;28;45691;-60
2022/03/24 00:24:55;;;;;;;;;40.00;34.25;;;;;15.45;30.54;102148.06;5056461;28;45342;-60
2022/03/24 00:27:21;;;;;;;;;40.25;33.50;;;;;15.48;30.11;102140.41;5039733;28;45535;-57
2022/03/24 00:29:46;;;;;;;;;51.75;41.75;;;;;15.42;30.69;102144.88;5040924;28;45823;-61
2022/03/24 00:32:12;;;;;;;;;33.00;30.00;;;;;15.12;30.93;102087.16;5055822;28;45399;-59
2022/03/24 00:34:38;;;;;;;;;41.00;35.50;;;;;15.40;30.21;102130.38;5073235;28;45441;-60
2022/03/24 00:37:04;;;;;;;;;46.60;37.60;;;;;15.36;30.21;102143.78;5056592;28;45621;-60
2022/03/24 00:39:34;;;;;;;;;44.50;38.50;;;;;15.30;30.56;102131.66;5057093;28;46428;-60
2022/03/24 00:42:01;;;;;;;;;44.60;38.60;;;;;15.02;30.87;102085.66;5039924;28;45386;-64
2022/03/24 00:44:27;;;;;;;;;43.60;37.40;;;;;15.17;30.55;102131.63;5056804;28;45382;-60
2022/03/24 00:46:53;;;;;;;;;40.40;35.00;;;;;15.12;30.87;102135.03;5073544;28;45582;-60
2022/03/24 00:49:19;;;;;;;;;40.80;34.60;;;;;15.08;30.19;102136.50;5039227;28;46913;-60
2022/03/24 00:51:44;;;;;;;;;44.00;36.75;;;;;15.13;31.07;102124.78;5038769;28;45489;-59
2022/03/24 00:54:10;;;;;;;;;42.75;35.50;;;;;15.12;30.81;102125.88;5056907;28;45420;-60
2022/03/24 00:56:35;;;;;;;;;32.00;28.50;;;;;15.07;31.28;102131.16;5056916;28;45703;-60
2022/03/24 00:59:01;;;;;;;;;43.25;35.00;;;;;15.04;31.06;102129.66;5056845;28;45470;-60
2022/03/24 01:01:26;;;;;;;;;47.75;35.00;;;;;15.01;30.96;102124.56;5055805;28;45517;-60
2022/03/24 01:03:52;;;;;;;;;45.50;36.00;;;;;14.95;31.17;102123.50;5056836;28;45451;-61
2022/03/24 01:06:18;;;;;;;;;41.75;35.50;;;;;14.91;31.21;102119.44;5038988;28;45327;-61
2022/03/24 01:08:44;;;;;;;;;49.60;38.20;;;;;14.96;31.62;102118.78;5056706;28;46713;-59
2022/03/24 01:11:10;;;;;;;;;48.60;38.40;;;;;14.70;30.59;102089.97;5057225;28;45449;-61
2022/03/24 01:13:36;;;;;;;;;38.50;34.50;;;;;14.84;31.27;102115.78;5038762;28;45358;-59
2022/03/24 01:16:03;;;;;;;;;48.20;38.20;;;;;14.69;31.24;102077.22;5055878;28;45716;-61
2022/03/24 01:18:30;;;;;;;;;37.20;34.60;;;;;14.58;30.83;102070.38;5056253;28;45470;-58
2022/03/24 01:20:56;;;;;;;;;46.60;36.60;;;;;14.72;31.65;102099.75;5021573;28;45443;-60
2022/03/24 01:23:23;;;;;;;;;44.50;35.00;;;;;14.71;30.95;102111.88;5056329;28;45368;-59
2022/03/24 01:25:49;;;;;;;;;27.40;21.40;;;;;14.60;31.22;102102.28;5057115;28;45434;-58
2022/03/24 01:28:15;;;;;;;;;42.75;33.75;;;;;14.63;31.80;102110.13;5038458;28;45418;-60
2022/03/24 01:30:40;;;;;;;;;50.20;36.60;;;;;14.30;31.32;102049.22;5056369;28;45311;-59
2022/03/24 01:33:06;;;;;;;;;46.75;35.75;;;;;14.68;31.18;102116.97;5038490;28;45456;-58
2022/03/24 01:35:32;;;;;;;;;39.00;33.00;;;;;14.74;31.06;102119.78;5056808;28;45633;-59
2022/03/24 01:37:58;;;;;;;;;46.50;36.50;;;;;14.75;31.41;102117.88;5056117;28;46552;-60
2022/03/24 01:40:24;;;;;;;;;40.40;32.20;;;;;14.72;31.89;102113.56;5056270;28;45433;-61
2022/03/24 01:42:49;;;;;;;;;45.25;35.00;;;;;14.70;30.78;102110.19;5056248;28;45467;-60
2022/03/24 01:45:15;;;;;;;;;39.50;35.50;;;;;14.73;31.93;102109.75;5056525;28;45523;-59
2022/03/24 01:47:40;;;;;;;;;37.75;32.25;;;;;14.74;32.14;102105.97;5054995;28;45434;-59
2022/03/24 01:50:07;;;;;;;;;42.25;35.25;;;;;14.77;31.79;102102.78;5055905;28;45513;-60
2022/03/24 01:52:32;;;;;;;;;45.40;35.60;;;;;14.76;31.14;102095.56;5056095;28;45426;-59
2022/03/24 01:54:59;;;;;;;;;39.75;34.75;;;;;14.76;31.33;102097.47;5056324;28;45168;-60
2022/03/24 01:57:25;;;;;;;;;43.40;35.40;;;;;14.74;31.11;102100.44;5055368;28;45383;-61
2022/03/24 01:59:51;;;;;;;;;40.80;28.00;;;;;14.71;30.99;102098.06;5056369;28;45345;-60
2022/03/24 02:02:16;;;;;;;;;40.50;35.00;;;;;14.69;31.74;102091.03;5038638;28;45328;-61
2022/03/24 02:04:43;;;;;;;;;42.00;35.00;;;;;14.18;31.37;102022.19;5072029;28;45363;-60
2022/03/24 02:07:08;;;;;;;;;35.00;33.80;;;;;14.63;31.42;102087.19;5055935;28;45343;-60
2022/03/24 02:09:37;;;;;;;;;34.25;32.50;;;;;14.36;31.85;102049.25;5071904;28;45271;-59
2022/03/24 02:12:07;;;;;;;;;43.00;35.00;;;;;14.58;32.07;102084.19;5071899;28;45381;-60
2022/03/24 02:14:33;;;;;;;;;37.80;32.60;;;;;14.60;31.28;102095.88;5056372;28;45493;-60
2022/03/24 02:16:58;;;;;;;;;36.20;32.80;;;;;14.61;31.64;102095.69;5055564;28;46391;-60
2022/03/24 02:19:25;;;;;;;;;48.50;38.25;;;;;14.57;31.33;102088.03;5041641;28;45853;-60
2022/03/24 02:21:55;;;;;;;;;42.00;35.40;;;;;14.53;31.84;102092.25;5015744;28;45438;-60
2022/03/24 02:24:22;;;;;;;;;41.00;33.60;;;;;14.48;31.06;102090.94;5031978;28;45424;-61
2022/03/24 02:26:48;;;;;;;;;40.80;35.00;;;;;14.47;32.06;102094.75;5034176;28;45617;-60
2022/03/24 02:29:15;;;;;;;;;45.50;36.00;;;;;14.33;31.50;102066.25;5035804;28;45421;-60
2022/03/24 02:31:43;;;;;;;;;42.20;34.80;;;;;14.46;31.59;102086.69;5018410;28;45485;-60
2022/03/24 02:36:54;;;;;;;;;42.60;35.80;;;;;14.27;31.94;102055.16;5035592;28;45943;-60
2022/03/24 02:39:20;;;;;;;;;45.75;36.25;;;;;14.37;32.13;102083.25;5035639;28;45316;-59
2022/03/24 02:41:51;;;;;;;;;34.00;32.50;;;;;14.26;32.79;102067.25;5018207;28;45411;-59
2022/03/24 02:44:17;;;;;;;;;44.60;35.60;;;;;14.29;31.99;102080.66;5050659;28;45377;-59
2022/03/24 02:46:47;;;;;;;;;47.00;35.80;;;;;14.35;32.20;102091.75;5035460;28;46213;-61
2022/03/24 02:49:15;;;;;;;;;39.60;34.00;;;;;14.35;32.41;102090.88;5017524;28;45354;-59
2022/03/24 02:51:41;;;;;;;;;36.20;32.60;;;;;14.36;32.20;102090.69;5049957;28;45405;-60
2022/03/24 02:54:07;;;;;;;;;43.00;33.00;;;;;14.33;32.56;102077.28;5055776;28;45729;-60
2022/03/24 02:56:33;;;;;;;;;37.00;31.40;;;;;13.89;32.52;102013.13;5020274;28;45837;-59
2022/03/24 02:58:59;;;;;;;;;40.00;33.00;;;;;14.17;32.14;102072.09;5054094;28;45852;-58
2022/03/24 03:01:27;;;;;;;;;39.75;35.50;;;;;13.93;32.62;102039.25;5037484;28;45709;-61
2022/03/24 03:03:53;;;;;;;;;42.00;34.40;;;;;14.31;32.65;102090.44;5070704;28;45619;-59
2022/03/24 03:06:19;;;;;;;;;39.25;33.00;;;;;14.19;32.57;102065.31;5053517;28;48011;-61
2022/03/24 03:08:46;;;;;;;;;39.40;34.00;;;;;14.32;32.67;102085.78;5054905;28;45461;-60
2022/03/24 03:11:12;;;;;;;;;39.60;35.60;;;;;14.29;32.58;102089.78;5071268;28;45419;-59
2022/03/24 03:13:38;;;;;;;;;41.00;36.00;;;;;14.29;33.18;102095.31;5055364;28;45456;-59
2022/03/24 03:16:04;;;;;;;;;40.25;33.00;;;;;14.20;32.34;102089.09;5037103;28;46249;-60
2022/03/24 03:18:32;;;;;;;;;43.60;34.00;;;;;14.04;33.58;102075.63;5053479;28;45392;-60
2022/03/24 03:20:59;;;;;;;;;38.60;32.80;;;;;13.89;32.98;102046.25;5055213;28;45457;-60
2022/03/24 03:23:25;;;;;;;;;38.00;33.00;;;;;14.19;33.23;102097.59;5055435;28;45386;-61
2022/03/24 03:25:50;;;;;;;;;47.25;38.50;;;;;14.05;32.77;102066.28;5054521;28;45612;-60
2022/03/24 03:28:16;;;;;;;;;43.00;34.75;;;;;14.15;32.89;102086.09;5070471;28;45254;-61
2022/03/24 03:30:43;;;;;;;;;36.75;30.25;;;;;14.08;33.05;102096.25;5070543;28;45961;-59
2022/03/24 03:33:09;;;;;;;;;40.80;35.20;;;;;13.78;33.28;102057.84;5055149;28;45334;-60
2022/03/24 03:35:35;;;;;;;;;34.60;32.40;;;;;13.87;33.05;102088.91;5069737;28;46101;-59
2022/03/24 03:38:00;;;;;;;;;45.00;35.50;;;;;13.76;33.53;102084.78;5054751;28;45344;-60
2022/03/24 03:40:26;;;;;;;;;40.00;34.75;;;;;13.82;33.39;102090.34;5054896;28;45415;-60
2022/03/24 03:42:52;;;;;;;;;41.00;34.75;;;;;13.74;33.28;102098.78;5055061;28;45529;-60
2022/03/24 03:45:18;;;;;;;;;41.60;35.00;;;;;13.73;33.52;102094.31;5054564;28;46562;-60
2022/03/24 03:47:43;;;;;;;;;45.50;36.50;;;;;13.55;33.48;102078.22;5070229;28;45415;-60
2022/03/24 03:50:09;;;;;;;;;38.00;33.25;;;;;13.64;33.71;102090.84;5054383;28;45920;-60
2022/03/24 03:52:35;;;;;;;;;46.00;36.75;;;;;13.50;34.32;102050.41;5054839;28;45496;-60
2022/03/24 03:55:00;;;;;;;;;36.75;33.25;;;;;13.79;34.41;102089.91;5054233;28;46111;-59
2022/03/24 03:57:26;;;;;;;;;41.00;34.50;;;;;13.82;34.56;102086.72;5055001;28;45429;-62
2022/03/24 03:59:52;;;;;;;;;39.20;34.20;;;;;13.87;34.38;102086.13;5036859;28;45608;-60
2022/03/24 04:02:18;;;;;;;;;36.50;29.00;;;;;13.64;34.00;102051.34;5055023;28;45415;-60
2022/03/24 04:04:44;;;;;;;;;44.60;35.40;;;;;13.58;34.20;102039.22;5069907;28;46521;-60
2022/03/24 04:07:09;;;;;;;;;39.00;34.25;;;;;13.85;33.93;102080.81;5054600;28;45264;-59
2022/03/24 04:09:35;;;;;;;;;42.00;34.00;;;;;13.78;33.76;102089.03;5070536;28;45297;-59
2022/03/24 04:12:01;;;;;;;;;41.00;35.50;;;;;13.74;33.83;102078.59;5055201;28;45362;-60
2022/03/24 04:14:26;;;;;;;;;42.00;33.25;;;;;13.79;34.32;102092.66;5054606;28;46687;-60
2022/03/24 04:16:56;;;;;;;;;43.25;36.00;;;;;13.53;34.12;102050.88;5054505;28;45331;-60
2022/03/24 04:19:24;;;;;;;;;39.80;34.60;;;;;13.78;34.79;102086.25;5055002;28;45408;-60
2022/03/24 04:21:50;;;;;;;;;37.20;31.60;;;;;13.75;34.44;102083.06;5057830;28;45368;-60
2022/03/24 04:24:16;;;;;;;;;41.75;34.50;;;;;13.73;34.84;102083.28;5057755;28;46193;-60
2022/03/24 04:26:41;;;;;;;;;38.00;32.75;;;;;13.69;34.40;102076.44;5058185;28;45196;-60
2022/03/24 04:29:07;;;;;;;;;37.50;33.75;;;;;13.74;34.44;102082.22;5057635;28;45357;-60
2022/03/24 04:31:33;;;;;;;;;41.25;35.75;;;;;13.76;34.18;102084.78;5058046;28;45188;-60
2022/03/24 04:33:58;;;;;;;;;37.25;33.25;;;;;13.41;34.13;102024.84;5057503;28;45677;-60
2022/03/24 04:36:24;;;;;;;;;43.50;35.00;;;;;13.71;34.63;102074.31;5057410;28;45513;-60
2022/03/24 04:38:49;;;;;;;;;40.50;33.25;;;;;13.75;34.28;102083.06;5056488;28;45445;-59
2022/03/24 04:41:15;;;;;;;;;44.25;34.75;;;;;13.74;34.55;102078.59;5057716;28;45445;-61
2022/03/24 04:43:40;;;;;;;;;42.75;35.50;;;;;13.66;33.98;102074.09;5057537;28;45651;-60
2022/03/24 04:46:06;;;;;;;;;36.50;33.50;;;;;13.68;34.88;102080.25;5057395;28;45321;-60
2022/03/24 04:48:35;;;;;;;;;37.00;32.00;;;;;13.71;34.77;102087.28;5057682;28;45432;-60
2022/03/24 04:51:03;;;;;;;;;36.00;33.60;;;;;13.71;34.69;102085.38;5073028;28;45250;-60
2022/03/24 04:53:29;;;;;;;;;42.00;34.60;;;;;13.69;34.94;102084.72;5072730;28;46100;-60
2022/03/24 04:55:54;;;;;;;;;38.00;35.00;;;;;13.70;35.14;102080.91;5057084;28;45462;-59
2022/03/24 04:58:20;;;;;;;;;40.50;35.00;;;;;13.69;35.09;102082.84;5056266;28;45463;-61
2022/03/24 05:00:45;;;;;;;;;46.50;36.75;;;;;13.59;34.89;102076.78;5057730;28;45638;-60
2022/03/24 05:03:11;;;;;;;;;47.75;37.00;;;;;13.45;34.88;102074.94;5057175;28;45445;-60
2022/03/24 05:05:37;;;;;;;;;43.50;35.00;;;;;13.31;35.26;102051.91;5057008;28;45506;-60
2022/03/24 05:08:03;;;;;;;;;42.00;35.00;;;;;13.42;35.18;102070.69;5057148;28;45414;-61
2022/03/24 05:10:29;;;;;;;;;43.40;36.60;;;;;13.48;35.71;102072.69;5072726;28;45372;-60
2022/03/24 05:12:54;;;;;;;;;42.50;33.75;;;;;13.45;36.08;102069.44;5056173;28;46591;-61
2022/03/24 05:15:20;;;;;;;;;43.50;35.25;;;;;13.53;35.35;102077.59;5057178;28;45292;-60
2022/03/24 05:17:46;;;;;;;;;54.00;35.75;;;;;13.30;36.08;102048.31;5038980;28;45466;-60
2022/03/24 05:20:12;;;;;;;;;31.25;29.25;;;;;13.52;35.86;102082.28;5057184;28;45317;-63
2022/03/24 05:22:37;;;;;;;;;38.25;33.25;;;;;13.52;35.63;102086.91;5056805;28;46208;-60
2022/03/24 05:25:03;;;;;;;;;37.00;34.25;;;;;13.44;35.86;102082.34;5057282;28;45687;-59
2022/03/24 05:27:29;;;;;;;;;45.60;36.00;;;;;13.35;35.65;102078.88;5089654;27;45417;-61
2022/03/24 05:29:54;;;;;;;;;37.50;35.00;;;;;13.13;36.07;102050.50;5072798;28;45441;-60
2022/03/24 05:32:20;;;;;;;;;36.00;32.25;;;;;13.38;36.06;102092.28;5055463;28;47958;-59
2022/03/24 05:34:46;;;;;;;;;40.25;35.00;;;;;13.26;35.87;102066.28;5072287;28;45440;-60
2022/03/24 05:37:13;;;;;;;;;40.25;35.00;;;;;13.45;35.71;102097.84;5072368;28;45537;-60
2022/03/24 05:39:38;;;;;;;;;38.40;34.60;;;;;13.48;35.31;102093.88;5057089;28;45326;-59
2022/03/24 05:42:04;;;;;;;;;40.00;34.25;;;;;13.27;35.44;102052.31;5056681;28;45465;-59
2022/03/24 05:44:30;;;;;;;;;40.75;35.75;;;;;13.39;35.52;102082.09;5072139;28;45466;-59
2022/03/24 05:46:56;;;;;;;;;47.40;37.20;;;;;13.44;35.99;102089.78;5056485;28;45292;-58
2022/03/24 05:49:22;;;;;;;;;50.75;38.00;;;;;13.15;36.20;102040.09;5038948;28;45571;-59
2022/03/24 05:51:47;;;;;;;;;47.00;36.50;;;;;13.45;35.77;102092.31;5056393;28;45618;-60
2022/03/24 05:54:14;;;;;;;;;47.75;36.00;;;;;13.44;35.98;102090.63;5056437;28;45342;-59
2022/03/24 05:56:44;;;;;;;;;39.00;35.40;;;;;13.23;36.05;102061.19;5055961;28;45837;-60
2022/03/24 05:59:09;;;;;;;;;46.40;36.20;;;;;13.17;36.13;102049.03;5038459;28;45443;-62
2022/03/24 06:01:35;;;;;;;;;40.75;36.75;;;;;13.21;35.99;102068.78;5071662;28;45716;-60
2022/03/24 06:04:01;;;;;;;;;43.60;35.40;;;;;13.45;35.96;102100.59;5071712;28;45363;-60
2022/03/24 06:06:26;;;;;;;;;39.25;36.00;;;;;13.43;35.94;102105.47;5055798;28;45425;-60
2022/03/24 06:08:53;;;;;;;;;46.25;37.00;;;;;13.45;35.87;102095.09;5072085;28;45314;-60
2022/03/24 06:11:19;;;;;;;;;35.20;32.80;;;;;13.46;35.97;102099.59;5038104;28;46186;-61
2022/03/24 06:13:46;;;;;;;;;38.50;33.50;;;;;13.45;36.24;102097.00;5056030;28;45550;-63
2022/03/24 06:16:13;;;;;;;;;45.00;36.80;;;;;13.37;36.12;102100.75;5026710;28;46050;-59
2022/03/24 06:18:39;;;;;;;;;47.00;37.00;;;;;13.23;36.08;102097.03;5055960;28;45599;-61
2022/03/24 06:21:04;;;;;;;;;42.80;36.00;;;;;13.22;36.69;102098.06;5070973;28;46269;-59
2022/03/24 06:23:30;;;;;;;;;49.00;37.50;;;;;13.25;36.72;102103.19;5054515;28;45250;-60
2022/03/24 06:25:56;;;;;;;;;35.50;33.00;;;;;13.29;36.59;102110.88;5055767;28;45300;-64
2022/03/24 06:28:21;;;;;;;;;38.50;35.50;;;;;13.31;36.55;102107.06;5056200;28;45638;-59
2022/03/24 06:30:47;;;;;;;;;45.00;35.75;;;;;13.36;36.05;102110.94;5055297;28;45842;-59
2022/03/24 06:33:13;;;;;;;;;40.20;35.00;;;;;13.24;36.20;102084.94;5071361;28;45668;-59
2022/03/24 06:35:39;;;;;;;;;43.40;37.00;;;;;13.30;36.40;102106.22;5055826;28;45453;-59
2022/03/24 06:38:04;;;;;;;;;42.50;34.00;;;;;13.06;36.65;102047.66;5055755;28;45470;-60
2022/03/24 06:40:30;;;;;;;;;42.50;36.00;;;;;13.35;36.07;102100.94;5037776;28;45431;-62
2022/03/24 06:42:56;;;;;;;;;49.00;36.00;;;;;13.35;36.40;102102.84;5036391;28;45534;-60
2022/03/24 06:45:21;;;;;;;;;43.00;36.00;;;;;13.29;36.27;102102.59;5055865;28;45420;-60
2022/03/24 06:47:47;;;;;;;;;43.50;37.00;;;;;13.26;36.16;102104.88;5055434;28;45403;-62
2022/03/24 06:50:13;;;;;;;;;43.50;37.25;;;;;13.28;36.53;102102.78;5055357;28;45450;-60
2022/03/24 06:52:39;;;;;;;;;35.50;34.00;;;;;13.38;36.31;102099.69;5070905;28;45423;-61
2022/03/24 06:55:05;;;;;;;;;39.20;34.60;;;;;13.46;36.25;102107.03;5054983;28;45422;-61
2022/03/24 06:57:31;;;;;;;;;41.40;36.00;;;;;13.49;36.56;102106.59;5037788;28;45340;-61
2022/03/24 06:59:56;;;;;;;;;49.75;38.25;;;;;13.53;36.12;102111.56;5055452;28;45834;-60
2022/03/24 07:02:22;;;;;;;;;46.25;35.75;;;;;13.50;35.83;102102.81;5055417;28;45331;-60
2022/03/24 07:04:47;;;;;;;;;45.00;35.50;;;;;13.74;36.35;102107.06;5055584;28;45845;-55
2022/03/24 07:07:13;;;;;;;;;38.75;32.75;;;;;13.81;35.32;102119.00;5055428;28;45399;-60
2022/03/24 07:09:39;;;;;;;;;43.25;35.00;;;;;13.75;35.54;102119.78;5055350;28;45743;-65
2022/03/24 07:12:05;;;;;;;;;43.00;37.25;;;;;13.76;35.17;102117.91;5071001;28;45444;-61
2022/03/24 07:14:30;;;;;;;;;45.60;36.40;;;;;13.76;35.09;102115.16;5034478;28;45380;-61
2022/03/24 07:16:56;;;;;;;;;46.50;39.75;;;;;13.76;35.19;102115.97;5045967;28;45521;-68
2022/03/24 07:19:21;;;;;;;;;43.50;36.00;;;;;13.55;35.55;102084.63;5032806;28;45758;-67
2022/03/24 07:21:47;;;;;;;;;49.25;39.75;;;;;13.77;35.48;102117.69;5032534;28;45871;-66
2022/03/24 07:24:12;;;;;;;;;45.75;37.50;;;;;13.75;35.12;102119.78;5064625;28;45553;-69
2022/03/24 07:26:39;;;;;;;;;46.50;38.00;;;;;13.59;35.17;102115.41;5051281;28;45378;-63
2022/03/24 07:29:04;;;;;;;;;48.20;39.40;;;;;13.60;36.00;102124.56;5050744;28;46633;-65
2022/03/24 07:31:30;;;;;;;;;53.25;38.50;;;;;13.50;35.34;102095.38;5050815;28;45398;-65
2022/03/24 07:33:57;;;;;;;;;41.75;35.00;;;;;13.63;35.24;102116.72;5054989;28;45825;-66
2022/03/24 07:36:23;;;;;;;;;49.75;39.50;;;;;13.58;35.65;102130.25;5065449;28;45594;-62
2022/03/24 07:38:52;;;;;;;;;47.25;37.50;;;;;13.49;35.71;102129.53;5032725;28;45616;-69
2022/03/24 07:41:18;;;;;;;;;46.40;37.00;;;;;13.42;35.92;102134.09;5048770;28;45525;-67
2022/03/24 07:43:44;;;;;;;;;50.25;40.00;;;;;13.19;35.95;102092.94;5051030;28;45423;-67
2022/03/24 07:46:09;;;;;;;;;49.75;37.25;;;;;13.42;36.34;102134.09;5051148;28;45390;-64
2022/03/24 07:48:35;;;;;;;;;53.50;37.00;;;;;13.44;35.84;102134.75;5031086;28;45439;-66
2022/03/24 07:51:03;;;;;;;;;54.25;40.50;;;;;13.42;35.60;102126.69;5050758;28;45410;-64
2022/03/24 07:53:28;;;;;;;;;45.60;35.80;;;;;13.58;35.90;102140.44;5032111;28;45462;-64
2022/03/24 07:55:55;;;;;;;;;46.00;39.25;;;;;13.55;35.78;102134.25;5053137;28;45662;-64
2022/03/24 07:58:21;;;;;;;;;41.20;34.80;;;;;13.64;35.52;102146.03;5035618;28;47308;-65
2022/03/24 08:00:47;;;;;;;;;45.25;37.00;;;;;13.64;35.55;102140.50;5034241;28;45806;-62
2022/03/24 08:03:17;;;;;;;;;50.60;41.40;;;;;13.73;35.60;102137.59;5069152;28;45469;-61
2022/03/24 08:05:43;;;;;;;;;47.50;38.25;;;;;13.71;35.55;102142.47;5053838;28;45560;-62
2022/03/24 08:08:11;;;;;;;;;40.75;33.75;;;;;13.68;35.55;102133.53;5053337;28;46441;-63
2022/03/24 08:10:37;;;;;;;;;50.40;39.60;;;;;13.75;36.05;102129.97;5035783;28;45761;-62
2022/03/24 08:13:04;;;;;;;;;40.40;35.40;;;;;13.83;35.62;102144.47;5034502;28;45877;-62
2022/03/24 08:15:30;;;;;;;;;50.80;39.80;;;;;13.75;35.85;102118.94;5026306;28;45434;-62
2022/03/24 08:17:56;;;;;;;;;52.00;40.25;;;;;13.96;35.60;102140.97;5018208;28;47963;-61
2022/03/24 08:20:23;;;;;;;;;55.50;42.25;;;;;13.98;35.12;102153.72;5053364;28;45361;-64
2022/03/24 08:22:48;;;;;;;;;51.00;41.80;;;;;13.88;35.43;102130.06;5051594;28;45513;-62
2022/03/24 08:25:14;;;;;;;;;49.00;39.00;;;;;14.07;35.31;102147.00;5067865;28;45964;-62
2022/03/24 08:27:39;;;;;;;;;51.00;41.00;;;;;14.14;34.71;102152.56;5052970;28;45725;-61
2022/03/24 08:30:05;;;;;;;;;54.50;42.25;;;;;14.14;36.05;102149.81;5053377;28;45497;-65
2022/03/24 08:32:31;;;;;;;;;59.50;44.00;;;;;14.18;34.79;102143.69;5068657;28;45439;-60
2022/03/24 08:34:56;;;;;;;;;54.00;41.75;;;;;14.21;34.98;102139.66;5051759;28;45442;-66
2022/03/24 08:37:22;;;;;;;;;50.50;41.00;;;;;14.18;34.02;102134.53;5051666;28;45517;-63
2022/03/24 08:39:48;;;;;;;;;54.00;41.00;;;;;14.27;34.71;102140.75;5052825;28;45469;-64
2022/03/24 08:42:13;;;;;;;;;49.75;37.50;;;;;14.30;33.57;102149.47;5052832;28;45474;-63
2022/03/24 08:44:39;;;;;;;;;48.75;38.25;;;;;14.35;33.84;102148.88;5067410;28;45682;-66
2022/03/24 08:47:05;;;;;;;;;49.25;39.50;;;;;14.22;34.68;102119.28;5034567;28;46249;-64
2022/03/24 08:49:31;;;;;;;;;43.80;35.20;;;;;14.48;33.26;102151.72;5033739;28;45460;-63
2022/03/24 08:51:57;;;;;;;;;59.50;46.00;;;;;14.50;33.43;102143.22;5025244;28;45530;-64
2022/03/24 08:54:23;;;;;;;;;45.00;34.40;;;;;14.58;33.08;102144.97;5033134;28;45480;-63
2022/03/24 08:56:49;;;;;;;;;46.00;35.25;;;;;14.57;33.75;102146.03;5053033;28;45484;-67
2022/03/24 08:59:16;;;;;;;;;45.00;35.00;;;;;14.69;32.27;102149.94;5050987;28;45454;-63
2022/03/24 09:01:43;;;;;;;;;43.40;37.40;;;;;14.62;32.92;102126.94;5051342;28;45780;-62
2022/03/24 09:04:10;;;;;;;;;48.40;36.80;;;;;14.84;33.16;102160.84;5053140;28;45708;-61
2022/03/24 09:06:36;;;;;;;;;49.20;39.20;;;;;14.92;32.77;102151.53;5052190;28;45750;-61
2022/03/24 09:09:01;;;;;;;;;50.20;36.80;;;;;14.96;32.41;102158.38;5051451;28;45882;-62
2022/03/24 09:11:28;;;;;;;;;43.00;35.25;;;;;14.98;31.64;102158.13;5034746;28;45399;-62
2022/03/24 09:13:54;;;;;;;;;39.00;33.40;;;;;14.62;32.54;102096.56;5033578;28;45552;-63
2022/03/24 09:16:19;;;;;;;;;39.75;32.75;;;;;15.09;32.94;102156.72;5041053;27;45938;-63
2022/03/24 09:18:45;;;;;;;;;39.25;35.00;;;;;14.84;32.37;102105.56;5052658;28;45798;-63
2022/03/24 09:21:11;;;;;;;;;51.00;40.50;;;;;15.21;32.46;102156.94;5068388;28;45832;-62
2022/03/24 09:23:36;;;;;;;;;46.50;36.50;;;;;15.35;32.13;102166.09;5034897;28;45904;-63
2022/03/24 09:26:02;;;;;;;;;47.50;36.00;;;;;15.42;32.07;102155.94;5032932;28;45889;-61
2022/03/24 09:28:27;;;;;;;;;40.75;34.00;;;;;15.51;30.80;102162.09;5051246;28;45454;-61
2022/03/24 09:30:56;;;;;;;;;42.25;35.00;;;;;15.55;30.45;102160.63;5052945;28;45740;-66
2022/03/24 09:33:21;;;;;;;;;37.60;33.60;;;;;15.65;31.39;102154.69;5034603;28;45422;-65
2022/03/24 09:35:48;;;;;;;;;44.00;33.00;;;;;15.71;30.86;102160.19;5052320;28;46572;-65
2022/03/24 09:38:13;;;;;;;;;41.40;33.00;;;;;15.80;31.08;102163.63;5050943;28;45401;-63
2022/03/24 09:40:40;;;;;;;;;42.25;34.75;;;;;15.91;30.66;102164.06;5052918;28;45490;-65
2022/03/24 09:43:06;;;;;;;;;46.20;36.00;;;;;15.96;30.03;102158.78;5052180;28;45572;-63
2022/03/24 09:45:31;;;;;;;;;41.40;33.80;;;;;16.00;30.90;102148.94;5050685;28;45555;-64
2022/03/24 09:47:57;;;;;;;;;49.00;37.50;;;;;16.14;30.13;102160.88;5067653;28;45500;-61
2022/03/24 09:50:24;;;;;;;;;37.00;34.25;;;;;15.83;30.64;102096.78;5047610;28;45827;-62
2022/03/24 09:52:51;;;;;;;;;40.40;33.60;;;;;16.22;30.76;102144.03;5066173;28;45887;-62
2022/03/24 09:55:19;;;;;;;;;48.00;35.20;;;;;16.33;29.89;102152.75;5051731;28;45546;-64
2022/03/24 09:57:48;;;;;;;;;46.80;35.40;;;;;16.33;29.98;102142.50;5047792;28;45602;-61
2022/03/24 10:00:14;;;;;;;;;44.40;37.00;;;;;16.49;31.10;102154.22;5030622;28;45441;-60
2022/03/24 10:02:40;;;;;;;;;49.60;40.60;;;;;16.60;30.04;102153.50;5016303;28;45769;-57
2022/03/24 10:05:08;;;;;;;;;46.75;35.00;;;;;16.70;29.51;102147.50;5049166;28;46426;-61
2022/03/24 10:07:54;;;;;;;;;48.20;39.20;;;;;16.79;29.40;102151.75;5051212;28;45505;-61
2022/03/24 10:10:24;;;;;;;;;48.60;36.80;;;;;16.85;29.48;102132.53;5049515;28;45504;-62
2022/03/24 10:12:49;;;;;;;;;44.20;35.20;;;;;16.94;29.43;102143.16;5049284;28;45615;-60
2022/03/24 10:15:16;;;;;;;;;52.50;40.25;;;;;17.04;29.10;102139.09;5034194;27;46713;-62
2022/03/24 10:17:49;;;;;;;;;48.60;38.60;;;;;17.14;29.22;102133.88;5012547;28;45399;-62
2022/03/24 10:20:15;;;;;;;;;53.80;42.00;;;;;17.25;29.20;102137.03;5030899;28;45499;-62
2022/03/24 10:23:03;;;;;;;;;50.50;38.00;;;;;17.34;29.83;102138.47;5048092;28;45643;-61
2022/03/24 10:25:33;;;;;;;;;49.40;37.80;;;;;17.39;29.04;102144.19;5066629;28;45929;-62
2022/03/24 10:28:08;;;;;;;;;47.80;39.60;;;;;17.51;28.92;102136.03;5048764;28;45742;-61
2022/03/24 10:30:53;;;;;;;;;40.00;35.80;;;;;17.61;29.06;102141.91;5031153;28;45504;-60
2022/03/24 10:33:30;;;;;;;;;47.20;38.20;;;;;17.66;28.33;102124.56;5050524;28;45576;-61
2022/03/24 10:36:17;;;;;;;;;47.40;37.60;;;;;17.81;28.45;102137.25;5048822;28;46320;-60
2022/03/24 10:38:47;;;;;;;;;46.40;37.00;;;;;17.92;28.59;102142.09;5048104;28;45499;-62
2022/03/24 10:41:13;;;;;;;;;47.80;35.00;;;;;18.01;28.10;102137.94;5063414;28;45555;-61
2022/03/24 10:43:38;;;;;;;;;48.75;37.75;;;;;18.12;28.41;102139.16;5049715;28;45563;-60
2022/03/24 10:46:34;;;;;;;;;47.50;37.00;;;;;18.24;28.03;102130.91;5049519;28;45809;-60
2022/03/24 10:49:23;;;;;;;;;45.00;36.00;;;;;18.37;28.57;102134.63;5036942;28;45523;-63
2022/03/24 10:51:50;;;;;;;;;45.80;34.20;;;;;18.45;27.86;102125.13;5050273;28;45510;-64
2022/03/24 10:54:51;;;;;;;;;44.40;36.20;;;;;18.55;27.72;102131.84;5033169;28;45518;-61
2022/03/24 10:57:19;;;;;;;;;46.80;37.20;;;;;18.60;27.18;102116.38;4988703;28;46150;-64
2022/03/24 10:59:46;;;;;;;;;46.00;36.80;;;;;18.51;27.72;102079.75;5020889;28;46285;-61
2022/03/24 11:02:13;;;;;;;;;46.60;37.00;;;;;18.95;27.52;102122.13;5050438;28;45398;-64
2022/03/24 11:04:39;;;;;;;;;47.80;37.40;;;;;18.87;26.40;102088.22;5005966;28;45931;-61
2022/03/24 11:07:05;;;;;;;;;48.80;34.60;;;;;19.13;26.92;102119.56;5045004;28;45933;-65
2022/03/24 11:09:32;;;;;;;;;49.25;35.50;;;;;19.02;26.71;102085.91;5033021;28;45452;-61